sensor_id;sensor_type;location;lat;lon;timestamp;pressure;altitude;pressure_sealevel;temperature;humidity
79465;BME280;68932;47.410;8.232;2023-05-10T00:01:55;96418.88;;;13.41;78.49
79465;BME280;68932;47.410;8.232;2023-05-10T00:04:23;96415.94;;;13.40;78.52
79465;BME280;68932;47.410;8.232;2023-05-10T00:06:52;96416.44;;;13.41;78.44
79465;BME280;68932;47.410;8.232;2023-05-10T00:09:20;96416.63;;;13.40;78.36
79465;BME280;68932;47.410;8.232;2023-05-10T00:11:48;96418.95;;;13.40;78.42
79465;BME280;68932;47.410;8.232;2023-05-10T00:14:17;96423.83;;;13.41;78.38
79465;BME280;68932;47.410;8.232;2023-05-10T00:16:45;96423.73;;;13.39;78.42
79465;BME280;68932;47.410;8.232;2023-05-10T00:19:14;96424.05;;;13.38;78.37
79465;BME280;68932;47.410;8.232;2023-05-10T00:21:42;96428.02;;;13.36;78.45
79465;BME280;68932;47.410;8.232;2023-05-10T00:24:10;96428.73;;;13.36;78.56
79465;BME280;68932;47.410;8.232;2023-05-10T00:26:38;96432.24;;;13.37;78.65
79465;BME280;68932;47.410;8.232;2023-05-10T00:29:06;96437.27;;;13.40;78.68
79465;BME280;68932;47.410;8.232;2023-05-10T00:31:35;96434.17;;;13.41;78.69
79465;BME280;68932;47.410;8.232;2023-05-10T00:34:03;96436.40;;;13.44;78.71
79465;BME280;68932;47.410;8.232;2023-05-10T00:36:31;96438.16;;;13.46;78.75
79465;BME280;68932;47.410;8.232;2023-05-10T00:38:59;96443.17;;;13.47;78.74
79465;BME280;68932;47.410;8.232;2023-05-10T00:41:28;96438.67;;;13.48;78.74
79465;BME280;68932;47.410;8.232;2023-05-10T00:43:56;96443.65;;;13.49;78.76
79465;BME280;68932;47.410;8.232;2023-05-10T00:46:25;96444.29;;;13.52;78.67
79465;BME280;68932;47.410;8.232;2023-05-10T00:48:54;96445.79;;;13.53;78.67
79465;BME280;68932;47.410;8.232;2023-05-10T00:51:22;96445.10;;;13.53;78.66
79465;BME280;68932;47.410;8.232;2023-05-10T00:53:51;96441.73;;;13.53;78.90
79465;BME280;68932;47.410;8.232;2023-05-10T00:56:19;96442.98;;;13.53;79.00
79465;BME280;68932;47.410;8.232;2023-05-10T00:58:47;96442.34;;;13.52;79.03
79465;BME280;68932;47.410;8.232;2023-05-10T01:01:16;96441.27;;;13.53;79.21
79465;BME280;68932;47.410;8.232;2023-05-10T01:03:45;96446.77;;;13.54;79.24
79465;BME280;68932;47.410;8.232;2023-05-10T01:06:13;96448.58;;;13.55;79.51
79465;BME280;68932;47.410;8.232;2023-05-10T01:08:42;96446.05;;;13.56;79.48
79465;BME280;68932;47.410;8.232;2023-05-10T01:11:10;96444.80;;;13.56;79.49
79465;BME280;68932;47.410;8.232;2023-05-10T01:13:41;96444.16;;;13.55;79.60
79465;BME280;68932;47.410;8.232;2023-05-10T01:16:10;96449.20;;;13.56;79.72
79465;BME280;68932;47.410;8.232;2023-05-10T01:18:40;96450.44;;;13.54;79.87
79465;BME280;68932;47.410;8.232;2023-05-10T01:21:18;96453.57;;;13.53;79.85
79465;BME280;68932;47.410;8.232;2023-05-10T01:24:02;96456.58;;;13.53;80.00
79465;BME280;68932;47.410;8.232;2023-05-10T01:27:05;96455.35;;;13.52;80.11
79465;BME280;68932;47.410;8.232;2023-05-10T01:29:53;96460.30;;;13.52;79.93
79465;BME280;68932;47.410;8.232;2023-05-10T01:32:36;96459.05;;;13.54;80.07
79465;BME280;68932;47.410;8.232;2023-05-10T01:35:13;96455.60;;;13.55;80.14
79465;BME280;68932;47.410;8.232;2023-05-10T01:37:50;96458.39;;;13.56;80.14
79465;BME280;68932;47.410;8.232;2023-05-10T01:40:25;96463.77;;;13.57;80.26
79465;BME280;68932;47.410;8.232;2023-05-10T01:42:57;96466.95;;;13.57;80.35
79465;BME280;68932;47.410;8.232;2023-05-10T01:45:33;96464.37;;;13.56;80.42
79465;BME280;68932;47.410;8.232;2023-05-10T01:48:08;96463.12;;;13.54;80.47
79465;BME280;68932;47.410;8.232;2023-05-10T01:50:39;96462.42;;;13.54;80.50
79465;BME280;68932;47.410;8.232;2023-05-10T01:53:11;96468.00;;;13.55;80.55
79465;BME280;68932;47.410;8.232;2023-05-10T01:55:44;96472.00;;;13.53;80.46
79465;BME280;68932;47.410;8.232;2023-05-10T01:58:17;96469.58;;;13.53;80.58
79465;BME280;68932;47.410;8.232;2023-05-10T02:00:49;96470.85;;;13.50;80.64
79465;BME280;68932;47.410;8.232;2023-05-10T02:03:20;96464.67;;;13.48;80.62
79465;BME280;68932;47.410;8.232;2023-05-10T02:05:50;96471.40;;;13.48;80.72
79465;BME280;68932;47.410;8.232;2023-05-10T02:08:20;96478.17;;;13.47;80.79
79465;BME280;68932;47.410;8.232;2023-05-10T02:10:50;96474.15;;;13.49;80.87
79465;BME280;68932;47.410;8.232;2023-05-10T02:13:20;96472.86;;;13.50;80.87
79465;BME280;68932;47.410;8.232;2023-05-10T02:15:50;96469.74;;;13.51;80.82
79465;BME280;68932;47.410;8.232;2023-05-10T02:18:19;96469.79;;;13.50;80.87
79465;BME280;68932;47.410;8.232;2023-05-10T02:20:49;96469.52;;;13.51;80.89
79465;BME280;68932;47.410;8.232;2023-05-10T02:23:21;96473.60;;;13.53;80.84
79465;BME280;68932;47.410;8.232;2023-05-10T02:25:53;96475.40;;;13.56;80.90
79465;BME280;68932;47.410;8.232;2023-05-10T02:28:23;96478.82;;;13.58;80.86
79465;BME280;68932;47.410;8.232;2023-05-10T02:30:52;96478.15;;;13.57;80.87
79465;BME280;68932;47.410;8.232;2023-05-10T02:33:22;96475.91;;;13.55;80.84
79465;BME280;68932;47.410;8.232;2023-05-10T02:35:51;96468.10;;;13.54;80.97
79465;BME280;68932;47.410;8.232;2023-05-10T02:38:21;96468.74;;;13.52;80.95
79465;BME280;68932;47.410;8.232;2023-05-10T02:40:52;96468.59;;;13.52;80.96
79465;BME280;68932;47.410;8.232;2023-05-10T02:43:23;96469.69;;;13.53;81.00
79465;BME280;68932;47.410;8.232;2023-05-10T02:45:51;96475.52;;;13.51;80.95
79465;BME280;68932;47.410;8.232;2023-05-10T02:48:19;96478.95;;;13.46;80.91
79465;BME280;68932;47.410;8.232;2023-05-10T02:50:48;96472.81;;;13.42;81.01
79465;BME280;68932;47.410;8.232;2023-05-10T02:53:20;96474.34;;;13.38;80.97
79465;BME280;68932;47.410;8.232;2023-05-10T02:55:51;96475.86;;;13.37;81.23
79465;BME280;68932;47.410;8.232;2023-05-10T02:58:19;96473.86;;;13.38;81.29
79465;BME280;68932;47.410;8.232;2023-05-10T03:00:48;96472.16;;;13.39;81.35
79465;BME280;68932;47.410;8.232;2023-05-10T03:03:16;96474.83;;;13.39;81.34
79465;BME280;68932;47.410;8.232;2023-05-10T03:05:44;96469.70;;;13.39;81.31
79465;BME280;68932;47.410;8.232;2023-05-10T03:08:13;96471.70;;;13.38;81.26
79465;BME280;68932;47.410;8.232;2023-05-10T03:10:47;96469.05;;;13.38;81.29
79465;BME280;68932;47.410;8.232;2023-05-10T03:13:31;96471.36;;;13.38;81.24
79465;BME280;68932;47.410;8.232;2023-05-10T03:16:10;96474.09;;;13.37;81.27
79465;BME280;68932;47.410;8.232;2023-05-10T03:18:44;96473.60;;;13.39;81.28
79465;BME280;68932;47.410;8.232;2023-05-10T03:21:19;96474.64;;;13.37;81.22
79465;BME280;68932;47.410;8.232;2023-05-10T03:23:53;96474.27;;;13.35;81.28
79465;BME280;68932;47.410;8.232;2023-05-10T03:26:28;96473.38;;;13.35;81.29
79465;BME280;68932;47.410;8.232;2023-05-10T03:28:56;96474.33;;;13.36;81.25
79465;BME280;68932;47.410;8.232;2023-05-10T03:31:25;96482.89;;;13.39;81.22
79465;BME280;68932;47.410;8.232;2023-05-10T03:33:54;96477.25;;;13.39;81.09
79465;BME280;68932;47.410;8.232;2023-05-10T03:36:22;96484.02;;;13.38;81.15
79465;BME280;68932;47.410;8.232;2023-05-10T03:38:50;96485.14;;;13.37;81.17
79465;BME280;68932;47.410;8.232;2023-05-10T03:41:19;96486.74;;;13.35;81.17
79465;BME280;68932;47.410;8.232;2023-05-10T03:43:47;96487.77;;;13.36;81.13
79465;BME280;68932;47.410;8.232;2023-05-10T03:46:15;96489.27;;;13.37;81.25
79465;BME280;68932;47.410;8.232;2023-05-10T03:48:43;96490.93;;;13.40;81.27
79465;BME280;68932;47.410;8.232;2023-05-10T03:51:12;96491.80;;;13.44;81.28
79465;BME280;68932;47.410;8.232;2023-05-10T03:53:40;96488.44;;;13.47;81.06
79465;BME280;68932;47.410;8.232;2023-05-10T03:56:08;96486.45;;;13.49;81.07
79465;BME280;68932;47.410;8.232;2023-05-10T03:58:37;96483.61;;;13.51;80.95
79465;BME280;68932;47.410;8.232;2023-05-10T04:01:05;96480.73;;;13.50;80.81
79465;BME280;68932;47.410;8.232;2023-05-10T04:03:46;96479.05;;;13.49;80.81
79465;BME280;68932;47.410;8.232;2023-05-10T04:06:15;96482.32;;;13.46;80.74
79465;BME280;68932;47.410;8.232;2023-05-10T04:08:43;96488.59;;;13.45;80.78
79465;BME280;68932;47.410;8.232;2023-05-10T04:11:12;96493.05;;;13.44;80.74
79465;BME280;68932;47.410;8.232;2023-05-10T04:13:41;96493.86;;;13.43;80.76
79465;BME280;68932;47.410;8.232;2023-05-10T04:16:09;96496.39;;;13.42;80.81
79465;BME280;68932;47.410;8.232;2023-05-10T04:18:37;96500.13;;;13.44;80.88
79465;BME280;68932;47.410;8.232;2023-05-10T04:21:10;96495.79;;;13.47;80.92
79465;BME280;68932;47.410;8.232;2023-05-10T04:23:38;96492.52;;;13.50;80.85
79465;BME280;68932;47.410;8.232;2023-05-10T04:26:07;96493.27;;;13.52;80.75
79465;BME280;68932;47.410;8.232;2023-05-10T04:28:35;96497.16;;;13.54;80.63
79465;BME280;68932;47.410;8.232;2023-05-10T04:31:05;96492.73;;;13.54;80.55
79465;BME280;68932;47.410;8.232;2023-05-10T04:33:34;96494.13;;;13.54;80.52
79465;BME280;68932;47.410;8.232;2023-05-10T04:36:03;96492.88;;;13.52;80.21
79465;BME280;68932;47.410;8.232;2023-05-10T04:38:31;96500.70;;;13.49;80.00
79465;BME280;68932;47.410;8.232;2023-05-10T04:41:07;96503.22;;;13.47;79.91
79465;BME280;68932;47.410;8.232;2023-05-10T04:43:36;96499.48;;;13.43;79.60
79465;BME280;68932;47.410;8.232;2023-05-10T04:46:06;96500.88;;;13.43;79.63
79465;BME280;68932;47.410;8.232;2023-05-10T04:48:34;96504.74;;;13.45;79.86
79465;BME280;68932;47.410;8.232;2023-05-10T04:51:02;96509.23;;;13.46;79.72
79465;BME280;68932;47.410;8.232;2023-05-10T04:53:31;96515.10;;;13.46;79.59
79465;BME280;68932;47.410;8.232;2023-05-10T04:55:59;96516.09;;;13.46;79.73
79465;BME280;68932;47.410;8.232;2023-05-10T04:58:27;96517.17;;;13.48;79.70
79465;BME280;68932;47.410;8.232;2023-05-10T05:00:56;96518.68;;;13.49;79.71
79465;BME280;68932;47.410;8.232;2023-05-10T05:03:24;96520.82;;;13.49;79.71
79465;BME280;68932;47.410;8.232;2023-05-10T05:05:52;96516.02;;;13.45;79.78
79465;BME280;68932;47.410;8.232;2023-05-10T05:08:20;96518.66;;;13.45;79.91
79465;BME280;68932;47.410;8.232;2023-05-10T05:10:49;96518.27;;;13.48;79.86
79465;BME280;68932;47.410;8.232;2023-05-10T05:13:17;96522.91;;;13.49;79.85
79465;BME280;68932;47.410;8.232;2023-05-10T05:15:45;96529.55;;;13.48;79.75
79465;BME280;68932;47.410;8.232;2023-05-10T05:18:14;96529.34;;;13.44;79.83
79465;BME280;68932;47.410;8.232;2023-05-10T05:20:42;96529.77;;;13.41;79.88
79465;BME280;68932;47.410;8.232;2023-05-10T05:23:10;96537.21;;;13.38;80.02
79465;BME280;68932;47.410;8.232;2023-05-10T05:25:38;96540.14;;;13.36;80.20
79465;BME280;68932;47.410;8.232;2023-05-10T05:28:07;96540.05;;;13.36;80.42
79465;BME280;68932;47.410;8.232;2023-05-10T05:30:35;96543.41;;;13.35;80.39
79465;BME280;68932;47.410;8.232;2023-05-10T05:33:03;96551.15;;;13.36;80.58
79465;BME280;68932;47.410;8.232;2023-05-10T05:35:32;96547.93;;;13.36;80.58
79465;BME280;68932;47.410;8.232;2023-05-10T05:38:00;96549.58;;;13.37;80.41
79465;BME280;68932;47.410;8.232;2023-05-10T05:40:28;96548.10;;;13.38;80.44
79465;BME280;68932;47.410;8.232;2023-05-10T05:42:56;96553.73;;;13.38;80.19
79465;BME280;68932;47.410;8.232;2023-05-10T05:45:25;96562.59;;;13.36;80.11
79465;BME280;68932;47.410;8.232;2023-05-10T05:47:53;96564.21;;;13.31;80.19
79465;BME280;68932;47.410;8.232;2023-05-10T05:50:21;96565.42;;;13.27;79.87
79465;BME280;68932;47.410;8.232;2023-05-10T05:52:49;96571.80;;;13.22;79.76
79465;BME280;68932;47.410;8.232;2023-05-10T05:55:18;96570.29;;;13.19;79.70
79465;BME280;68932;47.410;8.232;2023-05-10T05:57:46;96570.17;;;13.18;79.59
79465;BME280;68932;47.410;8.232;2023-05-10T06:00:15;96572.81;;;13.16;79.56
79465;BME280;68932;47.410;8.232;2023-05-10T06:02:44;96572.66;;;13.13;79.29
79465;BME280;68932;47.410;8.232;2023-05-10T06:05:12;96576.75;;;13.11;79.00
79465;BME280;68932;47.410;8.232;2023-05-10T06:07:40;96578.61;;;13.07;78.72
79465;BME280;68932;47.410;8.232;2023-05-10T06:10:11;96585.86;;;13.03;78.56
79465;BME280;68932;47.410;8.232;2023-05-10T06:12:39;96590.83;;;13.00;78.48
79465;BME280;68932;47.410;8.232;2023-05-10T06:15:10;96597.84;;;12.98;78.65
79465;BME280;68932;47.410;8.232;2023-05-10T06:17:38;96600.58;;;12.97;78.73
79465;BME280;68932;47.410;8.232;2023-05-10T06:20:08;96600.83;;;12.96;78.61
79465;BME280;68932;47.410;8.232;2023-05-10T06:22:37;96595.24;;;12.93;78.58
79465;BME280;68932;47.410;8.232;2023-05-10T06:25:06;96596.73;;;12.92;78.84
79465;BME280;68932;47.410;8.232;2023-05-10T06:27:35;96597.71;;;12.93;78.90
79465;BME280;68932;47.410;8.232;2023-05-10T06:30:04;96598.67;;;12.95;78.78
79465;BME280;68932;47.410;8.232;2023-05-10T06:32:33;96600.78;;;12.99;78.86
79465;BME280;68932;47.410;8.232;2023-05-10T06:35:01;96602.01;;;13.01;78.68
79465;BME280;68932;47.410;8.232;2023-05-10T06:37:29;96600.80;;;13.05;78.85
79465;BME280;68932;47.410;8.232;2023-05-10T06:39:57;96605.40;;;13.09;78.70
79465;BME280;68932;47.410;8.232;2023-05-10T06:42:26;96603.40;;;13.14;78.60
79465;BME280;68932;47.410;8.232;2023-05-10T06:44:54;96602.37;;;13.20;78.46
79465;BME280;68932;47.410;8.232;2023-05-10T06:47:22;96598.88;;;13.29;78.37
79465;BME280;68932;47.410;8.232;2023-05-10T06:49:51;96602.10;;;13.36;77.78
79465;BME280;68932;47.410;8.232;2023-05-10T06:52:19;96602.13;;;13.43;77.34
79465;BME280;68932;47.410;8.232;2023-05-10T06:54:47;96604.18;;;13.48;77.61
79465;BME280;68932;47.410;8.232;2023-05-10T06:57:15;96602.41;;;13.52;77.57
79465;BME280;68932;47.410;8.232;2023-05-10T06:59:44;96598.27;;;13.55;77.22
79465;BME280;68932;47.410;8.232;2023-05-10T07:02:12;96601.67;;;13.59;77.53
79465;BME280;68932;47.410;8.232;2023-05-10T07:04:40;96604.23;;;13.64;77.30
79465;BME280;68932;47.410;8.232;2023-05-10T07:07:09;96607.31;;;13.65;77.13
79465;BME280;68932;47.410;8.232;2023-05-10T07:09:37;96610.27;;;13.70;77.18
79465;BME280;68932;47.410;8.232;2023-05-10T07:12:06;96610.05;;;13.76;77.00
79465;BME280;68932;47.410;8.232;2023-05-10T07:14:34;96613.26;;;13.78;76.24
79465;BME280;68932;47.410;8.232;2023-05-10T07:17:03;96621.59;;;13.77;75.82
79465;BME280;68932;47.410;8.232;2023-05-10T07:19:31;96620.40;;;13.77;75.52
79465;BME280;68932;47.410;8.232;2023-05-10T07:21:59;96616.34;;;13.75;75.18
79465;BME280;68932;47.410;8.232;2023-05-10T07:24:27;96616.64;;;13.74;74.80
79465;BME280;68932;47.410;8.232;2023-05-10T07:26:56;96619.97;;;13.70;74.05
79465;BME280;68932;47.410;8.232;2023-05-10T07:29:24;96621.40;;;13.65;74.03
79465;BME280;68932;47.410;8.232;2023-05-10T07:31:52;96623.08;;;13.66;74.63
79465;BME280;68932;47.410;8.232;2023-05-10T07:34:21;96627.04;;;13.71;74.73
79465;BME280;68932;47.410;8.232;2023-05-10T07:36:49;96625.57;;;13.76;74.51
79465;BME280;68932;47.410;8.232;2023-05-10T07:39:17;96631.58;;;13.80;74.36
79465;BME280;68932;47.410;8.232;2023-05-10T07:41:45;96630.27;;;13.87;74.61
79465;BME280;68932;47.410;8.232;2023-05-10T07:44:14;96630.96;;;13.94;74.61
79465;BME280;68932;47.410;8.232;2023-05-10T07:46:42;96636.63;;;14.02;74.17
79465;BME280;68932;47.410;8.232;2023-05-10T07:49:10;96635.59;;;14.10;74.05
79465;BME280;68932;47.410;8.232;2023-05-10T07:51:38;96638.58;;;14.14;73.11
79465;BME280;68932;47.410;8.232;2023-05-10T07:54:07;96635.51;;;14.15;72.84
79465;BME280;68932;47.410;8.232;2023-05-10T07:56:35;96628.89;;;14.20;72.61
79465;BME280;68932;47.410;8.232;2023-05-10T07:59:04;96628.83;;;14.23;71.53
79465;BME280;68932;47.410;8.232;2023-05-10T08:01:33;96631.83;;;14.27;71.24
79465;BME280;68932;47.410;8.232;2023-05-10T08:04:02;96631.33;;;14.27;70.43
79465;BME280;68932;47.410;8.232;2023-05-10T08:06:31;96631.34;;;14.29;71.05
79465;BME280;68932;47.410;8.232;2023-05-10T08:08:59;96635.33;;;14.33;70.95
79465;BME280;68932;47.410;8.232;2023-05-10T08:11:27;96631.64;;;14.35;70.12
79465;BME280;68932;47.410;8.232;2023-05-10T08:13:55;96631.73;;;14.38;70.65
79465;BME280;68932;47.410;8.232;2023-05-10T08:16:24;96628.01;;;14.47;70.82
79465;BME280;68932;47.410;8.232;2023-05-10T08:18:52;96634.38;;;14.55;70.19
79465;BME280;68932;47.410;8.232;2023-05-10T08:21:20;96633.22;;;14.58;69.25
79465;BME280;68932;47.410;8.232;2023-05-10T08:23:48;96638.87;;;14.62;70.35
79465;BME280;68932;47.410;8.232;2023-05-10T08:26:16;96634.00;;;14.67;69.70
79465;BME280;68932;47.410;8.232;2023-05-10T08:28:45;96636.88;;;14.69;69.25
79465;BME280;68932;47.410;8.232;2023-05-10T08:31:13;96638.54;;;14.72;69.50
79465;BME280;68932;47.410;8.232;2023-05-10T08:33:41;96638.35;;;14.74;69.02
79465;BME280;68932;47.410;8.232;2023-05-10T08:36:10;96642.57;;;14.78;68.87
79465;BME280;68932;47.410;8.232;2023-05-10T08:38:39;96642.55;;;14.85;69.05
79465;BME280;68932;47.410;8.232;2023-05-10T08:41:07;96645.52;;;14.87;67.79
79465;BME280;68932;47.410;8.232;2023-05-10T08:43:37;96647.95;;;14.86;67.50
79465;BME280;68932;47.410;8.232;2023-05-10T08:46:06;96649.16;;;14.82;68.01
79465;BME280;68932;47.410;8.232;2023-05-10T08:48:36;96648.80;;;14.77;66.99
79465;BME280;68932;47.410;8.232;2023-05-10T08:51:06;96649.44;;;14.74;66.85
79465;BME280;68932;47.410;8.232;2023-05-10T08:53:37;96649.15;;;14.72;66.60
79465;BME280;68932;47.410;8.232;2023-05-10T08:56:08;96647.16;;;14.70;66.58
79465;BME280;68932;47.410;8.232;2023-05-10T08:58:37;96652.15;;;14.70;66.32
79465;BME280;68932;47.410;8.232;2023-05-10T09:01:06;96652.73;;;14.61;64.93
79465;BME280;68932;47.410;8.232;2023-05-10T09:03:36;96656.58;;;14.60;65.96
79465;BME280;68932;47.410;8.232;2023-05-10T09:06:07;96658.27;;;14.60;66.10
79465;BME280;68932;47.410;8.232;2023-05-10T09:08:35;96658.95;;;14.62;66.46
79465;BME280;68932;47.410;8.232;2023-05-10T09:11:05;96664.13;;;14.64;65.48
79465;BME280;68932;47.410;8.232;2023-05-10T09:13:34;96664.41;;;14.63;65.96
79465;BME280;68932;47.410;8.232;2023-05-10T09:16:04;96664.47;;;14.66;66.48
79465;BME280;68932;47.410;8.232;2023-05-10T09:18:32;96665.19;;;14.70;66.37
79465;BME280;68932;47.410;8.232;2023-05-10T09:21:01;96665.20;;;14.73;66.18
79465;BME280;68932;47.410;8.232;2023-05-10T09:23:29;96664.77;;;14.76;65.81
79465;BME280;68932;47.410;8.232;2023-05-10T09:26:04;96667.50;;;14.80;64.87
79465;BME280;68932;47.410;8.232;2023-05-10T09:28:35;96667.23;;;14.85;64.84
79465;BME280;68932;47.410;8.232;2023-05-10T09:31:17;96669.26;;;14.94;64.80
79465;BME280;68932;47.410;8.232;2023-05-10T09:33:47;96666.37;;;15.01;64.39
79465;BME280;68932;47.410;8.232;2023-05-10T09:36:16;96666.52;;;15.07;63.54
79465;BME280;68932;47.410;8.232;2023-05-10T09:38:49;96659.23;;;15.13;63.62
79465;BME280;68932;47.410;8.232;2023-05-10T09:41:22;96661.34;;;15.21;63.00
79465;BME280;68932;47.410;8.232;2023-05-10T09:43:55;96663.20;;;15.30;63.61
79465;BME280;68932;47.410;8.232;2023-05-10T09:46:23;96657.55;;;15.38;63.02
79465;BME280;68932;47.410;8.232;2023-05-10T09:48:51;96661.52;;;15.45;62.36
79465;BME280;68932;47.410;8.232;2023-05-10T09:51:24;96658.11;;;15.47;62.08
79465;BME280;68932;47.410;8.232;2023-05-10T09:54:10;96662.79;;;15.50;61.71
79465;BME280;68932;47.410;8.232;2023-05-10T09:56:39;96656.98;;;15.50;60.92
79465;BME280;68932;47.410;8.232;2023-05-10T09:59:09;96656.73;;;15.55;60.88
79465;BME280;68932;47.410;8.232;2023-05-10T10:01:37;96658.86;;;15.69;61.13
79465;BME280;68932;47.410;8.232;2023-05-10T10:04:08;96658.06;;;15.81;60.85
79465;BME280;68932;47.410;8.232;2023-05-10T10:06:41;96652.39;;;15.87;59.16
79465;BME280;68932;47.410;8.232;2023-05-10T10:09:09;96651.52;;;15.89;58.67
79465;BME280;68932;47.410;8.232;2023-05-10T10:11:39;96648.16;;;15.95;58.89
79465;BME280;68932;47.410;8.232;2023-05-10T10:14:07;96654.26;;;16.02;59.55
79465;BME280;68932;47.410;8.232;2023-05-10T10:16:36;96647.95;;;16.09;58.46
79465;BME280;68932;47.410;8.232;2023-05-10T10:19:04;96643.02;;;16.14;57.83
79465;BME280;68932;47.410;8.232;2023-05-10T10:21:34;96644.23;;;16.20;58.18
79465;BME280;68932;47.410;8.232;2023-05-10T10:24:02;96643.20;;;16.25;58.46
79465;BME280;68932;47.410;8.232;2023-05-10T10:26:31;96644.27;;;16.33;57.50
79465;BME280;68932;47.410;8.232;2023-05-10T10:29:10;96643.88;;;16.44;56.94
79465;BME280;68932;47.410;8.232;2023-05-10T10:31:45;96648.54;;;16.53;56.16
79465;BME280;68932;47.410;8.232;2023-05-10T10:34:24;96647.38;;;16.58;56.06
79465;BME280;68932;47.410;8.232;2023-05-10T10:36:53;96647.51;;;16.60;54.81
79465;BME280;68932;47.410;8.232;2023-05-10T10:39:22;96649.48;;;16.52;54.40
79465;BME280;68932;47.410;8.232;2023-05-10T10:41:53;96645.64;;;16.47;55.06
79465;BME280;68932;47.410;8.232;2023-05-10T10:44:27;96645.60;;;16.43;55.94
79465;BME280;68932;47.410;8.232;2023-05-10T10:49:53;96652.02;;;16.24;55.63
79465;BME280;68932;47.410;8.232;2023-05-10T10:52:32;96656.30;;;16.08;55.47
79465;BME280;68932;47.410;8.232;2023-05-10T10:55:03;96657.20;;;15.94;54.01
79465;BME280;68932;47.410;8.232;2023-05-10T10:57:42;96656.66;;;15.85;53.92
79465;BME280;68932;47.410;8.232;2023-05-10T11:00:23;96659.45;;;15.85;54.58
79465;BME280;68932;47.410;8.232;2023-05-10T11:02:54;96653.90;;;15.88;53.35
79465;BME280;68932;47.410;8.232;2023-05-10T11:05:38;96651.24;;;15.88;53.74
79465;BME280;68932;47.410;8.232;2023-05-10T11:08:28;96651.37;;;15.94;54.51
79465;BME280;68932;47.410;8.232;2023-05-10T11:11:06;96651.77;;;15.94;53.00
79465;BME280;68932;47.410;8.232;2023-05-10T11:13:37;96651.16;;;15.87;54.03
79465;BME280;68932;47.410;8.232;2023-05-10T11:16:17;96654.63;;;15.86;54.56
79465;BME280;68932;47.410;8.232;2023-05-10T11:19:03;96650.83;;;15.87;55.14
79465;BME280;68932;47.410;8.232;2023-05-10T11:21:32;96651.21;;;15.90;55.28
79465;BME280;68932;47.410;8.232;2023-05-10T11:24:02;96645.93;;;15.94;54.45
79465;BME280;68932;47.410;8.232;2023-05-10T11:26:34;96641.67;;;16.00;54.96
79465;BME280;68932;47.410;8.232;2023-05-10T11:29:02;96640.65;;;16.09;54.61
79465;BME280;68932;47.410;8.232;2023-05-10T11:31:31;96645.55;;;16.19;54.64
79465;BME280;68932;47.410;8.232;2023-05-10T11:34:00;96640.77;;;16.25;53.23
79465;BME280;68932;47.410;8.232;2023-05-10T11:36:32;96643.33;;;16.29;53.72
79465;BME280;68932;47.410;8.232;2023-05-10T11:38:59;96642.14;;;16.32;53.07
79465;BME280;68932;47.410;8.232;2023-05-10T11:41:30;96644.79;;;16.33;53.15
79465;BME280;68932;47.410;8.232;2023-05-10T11:43:59;96642.12;;;16.39;53.62
79465;BME280;68932;47.410;8.232;2023-05-10T11:46:28;96637.85;;;16.57;53.97
79465;BME280;68932;47.410;8.232;2023-05-10T11:48:59;96635.74;;;16.80;53.78
79465;BME280;68932;47.410;8.232;2023-05-10T11:51:28;96635.11;;;17.01;51.78
79465;BME280;68932;47.410;8.232;2023-05-10T11:53:57;96636.39;;;17.11;52.18
79465;BME280;68932;47.410;8.232;2023-05-10T11:56:25;96636.50;;;17.27;51.83
79465;BME280;68932;47.410;8.232;2023-05-10T11:58:57;96638.54;;;17.31;51.02
79465;BME280;68932;47.410;8.232;2023-05-10T12:01:24;96633.73;;;17.30;51.26
79465;BME280;68932;47.410;8.232;2023-05-10T12:03:54;96636.15;;;17.36;51.74
79465;BME280;68932;47.410;8.232;2023-05-10T12:06:25;96633.39;;;17.57;51.54
79465;BME280;68932;47.410;8.232;2023-05-10T12:08:54;96626.56;;;17.75;51.16
79465;BME280;68932;47.410;8.232;2023-05-10T12:11:26;96629.79;;;17.84;50.49
79465;BME280;68932;47.410;8.232;2023-05-10T12:13:55;96633.96;;;17.83;49.62
79465;BME280;68932;47.410;8.232;2023-05-10T12:16:25;96633.44;;;17.79;48.66
79465;BME280;68932;47.410;8.232;2023-05-10T12:18:57;96632.05;;;17.77;49.28
79465;BME280;68932;47.410;8.232;2023-05-10T12:21:27;96632.37;;;17.79;49.29
79465;BME280;68932;47.410;8.232;2023-05-10T12:23:58;96630.41;;;17.79;48.84
79465;BME280;68932;47.410;8.232;2023-05-10T12:26:29;96635.23;;;17.81;48.95
79465;BME280;68932;47.410;8.232;2023-05-10T12:29:13;96635.16;;;17.83;48.36
79465;BME280;68932;47.410;8.232;2023-05-10T12:31:52;96630.02;;;17.83;47.32
79465;BME280;68932;47.410;8.232;2023-05-10T12:34:31;96634.98;;;17.81;47.81
79465;BME280;68932;47.410;8.232;2023-05-10T12:37:00;96632.83;;;17.74;46.47
79465;BME280;68932;47.410;8.232;2023-05-10T12:39:40;96629.10;;;17.69;47.51
79465;BME280;68932;47.410;8.232;2023-05-10T12:42:09;96629.54;;;17.70;48.14
79465;BME280;68932;47.410;8.232;2023-05-10T12:44:37;96625.23;;;17.72;47.91
79465;BME280;68932;47.410;8.232;2023-05-10T12:47:06;96625.86;;;17.71;48.13
79465;BME280;68932;47.410;8.232;2023-05-10T12:49:34;96623.56;;;17.75;48.11
79465;BME280;68932;47.410;8.232;2023-05-10T12:52:03;96622.44;;;17.81;47.98
79465;BME280;68932;47.410;8.232;2023-05-10T12:54:31;96625.80;;;17.83;48.11
79465;BME280;68932;47.410;8.232;2023-05-10T12:56:59;96620.45;;;17.85;47.83
79465;BME280;68932;47.410;8.232;2023-05-10T12:59:27;96624.27;;;17.80;48.04
79465;BME280;68932;47.410;8.232;2023-05-10T13:01:56;96622.66;;;17.75;48.19
79465;BME280;68932;47.410;8.232;2023-05-10T13:04:25;96619.84;;;17.70;47.73
79465;BME280;68932;47.410;8.232;2023-05-10T13:06:53;96621.39;;;17.61;47.23
79465;BME280;68932;47.410;8.232;2023-05-10T13:09:21;96621.67;;;17.55;47.27
79465;BME280;68932;47.410;8.232;2023-05-10T13:11:50;96623.80;;;17.51;46.96
79465;BME280;68932;47.410;8.232;2023-05-10T13:14:18;96620.95;;;17.46;47.33
79465;BME280;68932;47.410;8.232;2023-05-10T13:16:46;96624.23;;;17.43;47.29
79465;BME280;68932;47.410;8.232;2023-05-10T13:19:15;96619.27;;;17.43;47.73